Observation data for Olton on 07/03/2020      Previous  Date  Next       Current Mesonet Observations  Soil Data  Daily Summary Page  Observations in Plain Language
KONS 030500Z 08010KT 25/18 A3011 RMK A01 T02450184  RH  073%=      5-min Rain = 0
KONS 030505Z 08011KT 25/18 A3011 RMK A01 T02450184  RH  072%=      5-min Rain = 0
KONS 030510Z 08010KT 25/18 A3011 RMK A01 T02450183  RH  072%=      5-min Rain = 0
KONS 030515Z 09011KT 24/18 A3011 RMK A01 T02440182  RH  072%=      5-min Rain = 0
KONS 030520Z 09010KT 24/18 A3011 RMK A01 T02440181  RH  072%=      5-min Rain = 0
KONS 030525Z 09008KT 24/18 A3011 RMK A01 T02430183  RH  073%=      5-min Rain = 0
KONS 030530Z 10007KT 24/18 A3011 RMK A01 T02440183  RH  073%=      5-min Rain = 0
KONS 030535Z 09008KT 24/18 A3011 RMK A01 T02440184  RH  073%=      5-min Rain = 0
KONS 030540Z 08009KT 24/19 A3012 RMK A01 T02430185  RH  074%=      5-min Rain = 0
KONS 030545Z 07008KT 24/19 A3012 RMK A01 T02420186  RH  075%=      5-min Rain = 0
KONS 030550Z 08009KT 24/18 A3012 RMK A01 T02410182  RH  074%=      5-min Rain = 0
KONS 030555Z 09010KT 24/18 A3012 RMK A01 T02410180  RH  072%=      5-min Rain = 0
KONS 030600Z 10009KT 24/18 A3012 RMK A01 T02410179  RH  072%=      5-min Rain = 0
KONS 030605Z 10008KT 24/18 A3011 RMK A01 T02410180  RH  073%=      5-min Rain = 0
KONS 030610Z 10009KT 24/18 A3011 RMK A01 T02400179  RH  072%=      5-min Rain = 0
KONS 030615Z 10008KT 24/18 A3011 RMK A01 T02400179  RH  072%=      5-min Rain = 0
KONS 030620Z 10008KT 24/18 A3011 RMK A01 T02400179  RH  073%=      5-min Rain = 0
KONS 030625Z 10008KT 24/18 A3011 RMK A01 T02380179  RH  073%=      5-min Rain = 0
KONS 030630Z 10007KT 24/18 A3011 RMK A01 T02380180  RH  074%=      5-min Rain = 0
KONS 030635Z 09007KT 24/18 A3011 RMK A01 T02360180  RH  075%=      5-min Rain = 0
KONS 030640Z 09007KT 24/18 A301 RMK A01 T02350181  RH  076%=      5-min Rain = 0
KONS 030645Z 09007KT 24/18 A301 RMK A01 T02350181  RH  075%=      5-min Rain = 0
KONS 030650Z 10005KT 24/18 A301 RMK A01 T02350181  RH  076%=      5-min Rain = 0
KONS 030655Z 13002KT 23/18 A301 RMK A01 T02340182  RH  077%=      5-min Rain = 0
KONS 030700Z 11003KT 23/18 A301 RMK A01 T02320181  RH  077%=      5-min Rain = 0
KONS 030705Z 10005KT 23/18 A301 RMK A01 T02320181  RH  077%=      5-min Rain = 0
KONS 030710Z 09005KT 23/18 A301 RMK A01 T02330179  RH  075%=      5-min Rain = 0
KONS 030715Z 09005KT 23/18 A3011 RMK A01 T02340177  RH  074%=      5-min Rain = 0
KONS 030720Z 10004KT 23/18 A3011 RMK A01 T02330179  RH  076%=      5-min Rain = 0
KONS 030725Z 12003KT 23/18 A3011 RMK A01 T02320179  RH  076%=      5-min Rain = 0
KONS 030730Z 13003KT 23/18 A301 RMK A01 T02300180  RH  077%=      5-min Rain = 0
KONS 030735Z 16003KT 23/18 A301 RMK A01 T02300178  RH  076%=      5-min Rain = 0
KONS 030740Z 18003KT 23/18 A301 RMK A01 T02290179  RH  078%=      5-min Rain = 0
KONS 030745Z 20003KT 23/18 A301 RMK A01 T02250180  RH  080%=      5-min Rain = 0
KONS 030750Z 22003KT 23/18 A301 RMK A01 T02250184  RH  082%=      5-min Rain = 0
KONS 030755Z 20001KT 23/19 A301 RMK A01 T02260186  RH  082%=      5-min Rain = 0
KONS 030800Z 21001KT 23/19 A301 RMK A01 T02270189  RH  083%=      5-min Rain = 0
KONS 030805Z 23002KT 23/19 A301 RMK A01 T02280191  RH  084%=      5-min Rain = 0
KONS 030810Z 23003KT 23/19 A301 RMK A01 T02280193  RH  086%=      5-min Rain = 0
KONS 030815Z 24004KT 23/19 A301 RMK A01 T02260190  RH  085%=      5-min Rain = 0
KONS 030820Z 24004KT 23/19 A301 RMK A01 T02250190  RH  085%=      5-min Rain = 0
KONS 030825Z 24004KT 23/19 A301 RMK A01 T02250191  RH  085%=      5-min Rain = 0
KONS 030830Z 23005KT 23/19 A301 RMK A01 T02250191  RH  086%=      5-min Rain = 0
KONS 030835Z 23006KT 22/19 A3009 RMK A01 T02230190  RH  086%=      5-min Rain = 0
KONS 030840Z 23006KT 22/19 A3009 RMK A01 T02210190  RH  087%=      5-min Rain = 0
KONS 030845Z 21006KT 22/19 A3008 RMK A01 T02210188  RH  086%=      5-min Rain = 0
KONS 030850Z 20005KT 22/19 A3008 RMK A01 T02210186  RH  085%=      5-min Rain = 0
KONS 030855Z 19005KT 22/19 A3008 RMK A01 T02230187  RH  085%=      5-min Rain = 0
KONS 030900Z 18006KT 23/19 A3008 RMK A01 T02250189  RH  085%=      5-min Rain = 0
KONS 030905Z 19006KT 23/19 A3007 RMK A01 T02250188  RH  084%=      5-min Rain = 0
KONS 030910Z 20008KT 22/19 A3007 RMK A01 T02220189  RH  086%=      5-min Rain = 0
KONS 030915Z 21009G14KT 22/19 A3007 RMK A01 T02230186  RH  084%=      5-min Rain = 0
KONS 030920Z 22010KT 23/18 A3007 RMK A01 T02300179  RH  077%=      5-min Rain = 0
KONS 030925Z 22009KT 23/18 A3007 RMK A01 T02310178  RH  076%=      5-min Rain = 0
KONS 030930Z 22008KT 23/18 A3006 RMK A01 T02280179  RH  078%=      5-min Rain = 0
KONS 030935Z 22008KT 23/18 A3006 RMK A01 T02250179  RH  079%=      5-min Rain = 0
KONS 030940Z 22009KT 22/18 A3006 RMK A01 T02240177  RH  079%=      5-min Rain = 0
KONS 030945Z 21008KT 22/18 A3005 RMK A01 T02220176  RH  079%=      5-min Rain = 0
KONS 030950Z 20007KT 22/17 A3005 RMK A01 T02210174  RH  079%=      5-min Rain = 0
KONS 030955Z 19006KT 22/18 A3006 RMK A01 T02190175  RH  080%=      5-min Rain = 0
KONS 031000Z 19006KT 22/17 A3006 RMK A01 T02190174  RH  079%=      5-min Rain = 0
KONS 031005Z 19004KT 22/17 A3006 RMK A01 T02190174  RH  079%=      5-min Rain = 0
KONS 031010Z 15003KT 22/18 A3007 RMK A01 T02190175  RH  080%=      5-min Rain = 0
KONS 031015Z 12004KT 22/18 A3007 RMK A01 T02210177  RH  080%=      5-min Rain = 0
KONS 031020Z 12005KT 22/18 A3007 RMK A01 T02210176  RH  080%=      5-min Rain = 0
KONS 031025Z 14004KT 22/18 A3007 RMK A01 T02210176  RH  080%=      5-min Rain = 0
KONS 031030Z 14004KT 22/18 A3007 RMK A01 T02200177  RH  081%=      5-min Rain = 0
KONS 031035Z 12004KT 22/18 A3008 RMK A01 T02200179  RH  082%=      5-min Rain = 0
KONS 031040Z 11005KT 22/18 A3008 RMK A01 T02200179  RH  082%=      5-min Rain = 0
KONS 031045Z 11005KT 22/18 A3008 RMK A01 T02210179  RH  081%=      5-min Rain = 0
KONS 031050Z 12005KT 22/18 A3008 RMK A01 T02210178  RH  081%=      5-min Rain = 0
KONS 031055Z 12005KT 22/18 A3009 RMK A01 T02210177  RH  080%=      5-min Rain = 0
KONS 031100Z 12005KT 22/18 A3009 RMK A01 T02190176  RH  080%=      5-min Rain = 0
KONS 031105Z 12005KT 22/18 A3009 RMK A01 T02170176  RH  082%=      5-min Rain = 0
KONS 031110Z 12005KT 22/18 A3009 RMK A01 T02160176  RH  082%=      5-min Rain = 0
KONS 031115Z 14004KT 22/18 A3009 RMK A01 T02150175  RH  082%=      5-min Rain = 0
KONS 031120Z 16003KT 22/17 A301 RMK A01 T02150174  RH  082%=      5-min Rain = 0
KONS 031125Z 16003KT 22/17 A301 RMK A01 T02150173  RH  081%=      5-min Rain = 0
KONS 031130Z 15002KT 22/18 A301 RMK A01 T02150175  RH  082%=      5-min Rain = 0
KONS 031135Z 14001KT 22/18 A301 RMK A01 T02150177  RH  083%=      5-min Rain = 0
KONS 031140Z 13001KT 22/18 A301 RMK A01 T02160178  RH  083%=      5-min Rain = 0
KONS 031145Z 10000KT 22/18 A301 RMK A01 T02160182  RH  085%=      5-min Rain = 0
KONS 031150Z 00000KT 22/18 A301 RMK A01 T02160184  RH  087%=      5-min Rain = 0
KONS 031155Z 00000KT 22/18 A301 RMK A01 T02160184  RH  087%=      5-min Rain = 0
KONS 031200Z 27000KT 22/19 A301 RMK A01 T02170187  RH  088%=      5-min Rain = 0
KONS 031205Z 26002KT 22/19 A301 RMK A01 T02160187  RH  088%=      5-min Rain = 0
KONS 031210Z 21002KT 22/19 A301 RMK A01 T02170186  RH  087%=      5-min Rain = 0
KONS 031215Z 22003KT 22/18 A301 RMK A01 T02180178  RH  082%=      5-min Rain = 0
KONS 031220Z 22004KT 22/17 A301 RMK A01 T02190174  RH  080%=      5-min Rain = 0
KONS 031225Z 21004KT 22/18 A301 RMK A01 T02200176  RH  080%=      5-min Rain = 0
KONS 031230Z 21004KT 22/18 A301 RMK A01 T02220176  RH  079%=      5-min Rain = 0
KONS 031235Z 16004KT 22/18 A3009 RMK A01 T02240176  RH  078%=      5-min Rain = 0
KONS 031240Z 15004KT 23/18 A301 RMK A01 T02280175  RH  076%=      5-min Rain = 0
KONS 031245Z 14005KT 23/17 A301 RMK A01 T02310174  RH  074%=      5-min Rain = 0
KONS 031250Z 14006KT 23/17 A301 RMK A01 T02320174  RH  073%=      5-min Rain = 0
KONS 031255Z 13006KT 24/17 A301 RMK A01 T02350173  RH  072%=      5-min Rain = 0
KONS 031300Z 13006KT 24/18 A301 RMK A01 T02380175  RH  071%=      5-min Rain = 0
KONS 031305Z 14007KT 24/17 A301 RMK A01 T02400172  RH  069%=      5-min Rain = 0
KONS 031310Z 15005KT 24/17 A301 RMK A01 T02410173  RH  069%=      5-min Rain = 0
KONS 031315Z 15006KT 25/17 A301 RMK A01 T02450174  RH  068%=      5-min Rain = 0
KONS 031320Z 15006KT 25/17 A301 RMK A01 T02500173  RH  066%=      5-min Rain = 0
KONS 031325Z 15006KT 25/17 A3011 RMK A01 T02530171  RH  063%=      5-min Rain = 0
KONS 031330Z 16006KT 26/17 A3011 RMK A01 T02550170  RH  062%=      5-min Rain = 0
KONS 031335Z 16005KT 26/17 A3011 RMK A01 T02580170  RH  061%=      5-min Rain = 0
KONS 031340Z 16006KT 26/17 A3011 RMK A01 T02610169  RH  060%=      5-min Rain = 0
KONS 031345Z 17006KT 27/17 A3012 RMK A01 T02650171  RH  059%=      5-min Rain = 0
KONS 031350Z 18007KT 27/17 A3012 RMK A01 T02660170  RH  058%=      5-min Rain = 0
KONS 031355Z 19007KT 27/17 A3012 RMK A01 T02680170  RH  058%=      5-min Rain = 0
KONS 031400Z 19009KT 27/17 A3012 RMK A01 T02690168  RH  057%=      5-min Rain = 0
KONS 031405Z 19008KT 27/17 A3013 RMK A01 T02690167  RH  056%=      5-min Rain = 0
KONS 031410Z 18010KT 27/16 A3013 RMK A01 T02690164  RH  055%=      5-min Rain = 0
KONS 031415Z 18009KT 27/17 A3013 RMK A01 T02700165  RH  055%=      5-min Rain = 0
KONS 031420Z 18010KT 27/16 A3013 RMK A01 T02710163  RH  054%=      5-min Rain = 0
KONS 031425Z 18011KT 27/16 A3013 RMK A01 T02740162  RH  053%=      5-min Rain = 0
KONS 031430Z 18010G15KT 28/16 A3013 RMK A01 T02750161  RH  052%=      5-min Rain = 0
KONS 031435Z 17011KT 28/16 A3014 RMK A01 T02760159  RH  051%=      5-min Rain = 0
KONS 031440Z 17010KT 28/16 A3014 RMK A01 T02790159  RH  050%=      5-min Rain = 0
KONS 031445Z 17008KT 28/16 A3014 RMK A01 T02780156  RH  050%=      5-min Rain = 0
KONS 031450Z 18007KT 28/16 A3014 RMK A01 T02790162  RH  051%=      5-min Rain = 0
KONS 031455Z 17007KT 28/16 A3014 RMK A01 T02830159  RH  049%=      5-min Rain = 0
KONS 031500Z 15008KT 28/15 A3014 RMK A01 T02830152  RH  047%=      5-min Rain = 0
KONS 031505Z 16009KT 28/15 A3014 RMK A01 T02840154  RH  047%=      5-min Rain = 0
KONS 031510Z 16007KT 29/16 A3014 RMK A01 T02870156  RH  047%=      5-min Rain = 0
KONS 031515Z 18008KT 29/16 A3015 RMK A01 T02870158  RH  048%=      5-min Rain = 0
KONS 031520Z 15005KT 29/15 A3015 RMK A01 T02880153  RH  046%=      5-min Rain = 0
KONS 031525Z 16007KT 29/16 A3014 RMK A01 T02910155  RH  046%=      5-min Rain = 0
KONS 031530Z 16007KT 29/15 A3015 RMK A01 T02910153  RH  045%=      5-min Rain = 0
KONS 031535Z 16008KT 29/15 A3015 RMK A01 T02920154  RH  045%=      5-min Rain = 0
KONS 031540Z 15008KT 29/16 A3015 RMK A01 T02920155  RH  045%=      5-min Rain = 0
KONS 031545Z 15009KT 29/16 A3015 RMK A01 T02920155  RH  045%=      5-min Rain = 0
KONS 031550Z 15007KT 29/15 A3015 RMK A01 T02930151  RH  044%=      5-min Rain = 0
KONS 031555Z 16007G14KT 30/16 A3014 RMK A01 T02960158  RH  046%=      5-min Rain = 0
KONS 031600Z 17008G14KT 30/16 A3014 RMK A01 T02980157  RH  045%=      5-min Rain = 0
KONS 031605Z 15007KT 30/15 A3014 RMK A01 T02970153  RH  044%=      5-min Rain = 0
KONS 031610Z 14008KT 30/16 A3014 RMK A01 T02960155  RH  044%=      5-min Rain = 0
KONS 031615Z 14008KT 30/16 A3014 RMK A01 T02990157  RH  044%=      5-min Rain = 0
KONS 031620Z 17008KT 30/16 A3014 RMK A01 T03010156  RH  044%=      5-min Rain = 0
KONS 031625Z 16008KT 30/16 A3015 RMK A01 T03020157  RH  043%=      5-min Rain = 0
KONS 031630Z 17007KT 30/15 A3015 RMK A01 T03010154  RH  043%=      5-min Rain = 0
KONS 031635Z 16008KT 30/16 A3015 RMK A01 T03040156  RH  043%=      5-min Rain = 0
KONS 031640Z 13008G13KT 30/16 A3015 RMK A01 T03040155  RH  042%=      5-min Rain = 0
KONS 031645Z 15006KT 30/15 A3015 RMK A01 T03030150  RH  041%=      5-min Rain = 0
KONS 031650Z 14004G9KT 31/15 A3015 RMK A01 T03060151  RH  041%=      5-min Rain = 0
KONS 031655Z 16006KT 31/15 A3015 RMK A01 T03070152  RH  041%=      5-min Rain = 0
KONS 031700Z 18005KT 31/16 A3015 RMK A01 T03070156  RH  042%=      5-min Rain = 0
KONS 031705Z 17007KT 31/16 A3015 RMK A01 T03100155  RH  041%=      5-min Rain = 0
KONS 031710Z 16007KT 31/15 A3015 RMK A01 T03090151  RH  040%=      5-min Rain = 0
KONS 031715Z 16005G10KT 31/15 A3015 RMK A01 T03100154  RH  041%=      5-min Rain = 0
KONS 031720Z 19008KT 31/16 A3014 RMK A01 T03110158  RH  042%=      5-min Rain = 0
KONS 031725Z 15007KT 31/16 A3014 RMK A01 T03130156  RH  041%=      5-min Rain = 0
KONS 031730Z 15006KT 32/16 A3014 RMK A01 T03150155  RH  040%=      5-min Rain = 0
KONS 031735Z 13007KT 32/16 A3014 RMK A01 T03150155  RH  040%=      5-min Rain = 0
KONS 031740Z 14008KT 32/16 A3014 RMK A01 T03150156  RH  040%=      5-min Rain = 0
KONS 031745Z 16008KT 32/16 A3014 RMK A01 T03180155  RH  039%=      5-min Rain = 0
KONS 031750Z 17006KT 32/15 A3014 RMK A01 T03160153  RH  039%=      5-min Rain = 0
KONS 031755Z 15006G13KT 32/15 A3014 RMK A01 T03150151  RH  039%=      5-min Rain = 0
KONS 031800Z 14009KT 32/15 A3014 RMK A01 T03210152  RH  038%=      5-min Rain = 0
KONS 031805Z 14008G15KT 32/15 A3014 RMK A01 T03210148  RH  037%=      5-min Rain = 0
KONS 031810Z 13006KT 32/14 A3014 RMK A01 T03200144  RH  036%=      5-min Rain = 0
KONS 031815Z 15005G10KT 33/15 A3014 RMK A01 T03250150  RH  036%=      5-min Rain = 0
KONS 031820Z 13009KT 33/15 A3013 RMK A01 T03280146  RH  035%=      5-min Rain = 0
KONS 031825Z 12009KT 33/15 A3013 RMK A01 T03270145  RH  035%=      5-min Rain = 0
KONS 031830Z 12009G14KT 33/14 A3013 RMK A01 T03270139  RH  034%=      5-min Rain = 0
KONS 031835Z 13008G14KT 33/14 A3013 RMK A01 T03270135  RH  032%=      5-min Rain = 0
KONS 031840Z 13007G14KT 32/14 A3013 RMK A01 T03220139  RH  034%=      5-min Rain = 0
KONS 031845Z 12009KT 32/14 A3012 RMK A01 T03210139  RH  035%=      5-min Rain = 0
KONS 031850Z 13004KT 33/14 A3012 RMK A01 T03280139  RH  033%=      5-min Rain = 0
KONS 031855Z 13011G18KT 33/13 A3012 RMK A01 T03310132  RH  031%=      5-min Rain = 0
KONS 031900Z 13008G15KT 33/13 A3012 RMK A01 T03300130  RH  031%=      5-min Rain = 0
KONS 031905Z 15011KT 33/13 A3012 RMK A01 T03320133  RH  031%=      5-min Rain = 0
KONS 031910Z 10008KT 33/13 A3011 RMK A01 T03310134  RH  032%=      5-min Rain = 0
KONS 031915Z 14009G17KT 33/13 A3011 RMK A01 T03310133  RH  031%=      5-min Rain = 0
KONS 031920Z 13009G17KT 33/13 A3011 RMK A01 T03310133  RH  032%=      5-min Rain = 0
KONS 031925Z 14011G19KT 33/13 A3011 RMK A01 T03340132  RH  031%=      5-min Rain = 0
KONS 031930Z 11006G11KT 33/13 A3011 RMK A01 T03300127  RH  030%=      5-min Rain = 0
KONS 031935Z 15009G15KT 33/13 A301 RMK A01 T03330129  RH  030%=      5-min Rain = 0
KONS 031940Z 15009G15KT 33/13 A301 RMK A01 T03340126  RH  029%=      5-min Rain = 0
KONS 031945Z 15009KT 34/13 A301 RMK A01 T03360125  RH  029%=      5-min Rain = 0
KONS 031950Z 17005G11KT 34/13 A301 RMK A01 T03360126  RH  029%=      5-min Rain = 0
KONS 031955Z 14007G12KT 34/13 A301 RMK A01 T03400130  RH  029%=      5-min Rain = 0
KONS 032000Z 14013KT 34/13 A3009 RMK A01 T03390126  RH  029%=      5-min Rain = 0
KONS 032005Z 14010G15KT 34/12 A3009 RMK A01 T03360122  RH  028%=      5-min Rain = 0
KONS 032010Z 13009G14KT 34/13 A3009 RMK A01 T03380125  RH  028%=      5-min Rain = 0
KONS 032015Z 17009KT 34/12 A3009 RMK A01 T03420123  RH  028%=      5-min Rain = 0
KONS 032020Z 15006G11KT 34/12 A3009 RMK A01 T03390122  RH  028%=      5-min Rain = 0
KONS 032025Z 12009KT 34/13 A3009 RMK A01 T03410125  RH  028%=      5-min Rain = 0
KONS 032030Z 15009G14KT 34/12 A3009 RMK A01 T03410122  RH  028%=      5-min Rain = 0
KONS 032035Z 18007KT 34/12 A3009 RMK A01 T03410120  RH  027%=      5-min Rain = 0
KONS 032040Z 18008G14KT 34/13 A3009 RMK A01 T03430132  RH  029%=      5-min Rain = 0
KONS 032045Z 16010G16KT 34/12 A3008 RMK A01 T03410121  RH  027%=      5-min Rain = 0
KONS 032050Z 17008G16KT 34/12 A3008 RMK A01 T03430123  RH  028%=      5-min Rain = 0
KONS 032055Z 15009G16KT 35/12 A3008 RMK A01 T03460122  RH  027%=      5-min Rain = 0
KONS 032100Z 11002KT 34/12 A3008 RMK A01 T03390119  RH  027%=      5-min Rain = 0
KONS 032105Z 15009KT 34/13 A3008 RMK A01 T03440125  RH  028%=      5-min Rain = 0
KONS 032110Z 14008G13KT 35/13 A3008 RMK A01 T03450125  RH  027%=      5-min Rain = 0
KONS 032115Z 15008KT 35/13 A3008 RMK A01 T03450127  RH  028%=      5-min Rain = 0
KONS 032120Z 17008KT 34/13 A3008 RMK A01 T03440129  RH  028%=      5-min Rain = 0
KONS 032125Z 15009G14KT 34/12 A3008 RMK A01 T03440121  RH  027%=      5-min Rain = 0
KONS 032130Z 13006KT 34/12 A3008 RMK A01 T03430119  RH  027%=      5-min Rain = 0
KONS 032135Z 14004G10KT 34/12 A3008 RMK A01 T03440121  RH  027%=      5-min Rain = 0
KONS 032140Z 15010KT 35/13 A3008 RMK A01 T03490126  RH  027%=      5-min Rain = 0
KONS 032145Z 19005G11KT 34/12 A3008 RMK A01 T03440121  RH  027%=      5-min Rain = 0
KONS 032150Z 18007KT 35/12 A3007 RMK A01 T03450124  RH  027%=      5-min Rain = 0
KONS 032155Z 19005G11KT 34/12 A3007 RMK A01 T03420121  RH  027%=      5-min Rain = 0
KONS 032200Z 16008G14KT 35/12 A3007 RMK A01 T03480122  RH  027%=      5-min Rain = 0
KONS 032205Z 14010KT 35/13 A3007 RMK A01 T03490125  RH  027%=      5-min Rain = 0
KONS 032210Z 13009G15KT 35/12 A3007 RMK A01 T03490122  RH  026%=      5-min Rain = 0
KONS 032215Z 14010KT 35/13 A3006 RMK A01 T03490125  RH  027%=      5-min Rain = 0
KONS 032220Z 14011KT 35/12 A3006 RMK A01 T03500124  RH  027%=      5-min Rain = 0
KONS 032225Z 14009G14KT 35/12 A3006 RMK A01 T03470121  RH  026%=      5-min Rain = 0
KONS 032230Z 16007G14KT 35/12 A3005 RMK A01 T03450121  RH  027%=      5-min Rain = 0
KONS 032235Z 16011G16KT 35/12 A3005 RMK A01 T03460122  RH  027%=      5-min Rain = 0
KONS 032240Z 16011KT 34/12 A3005 RMK A01 T03370124  RH  029%=      5-min Rain = 0
KONS 032245Z 14010G15KT 34/12 A3005 RMK A01 T03400119  RH  027%=      5-min Rain = 0
KONS 032250Z 13010KT 35/12 A3005 RMK A01 T03450118  RH  026%=      5-min Rain = 0
KONS 032255Z 13011KT 35/12 A3005 RMK A01 T03450120  RH  027%=      5-min Rain = 0
KONS 032300Z 15010KT 35/12 A3005 RMK A01 T03470118  RH  026%=      5-min Rain = 0
KONS 032305Z 12010KT 35/12 A3005 RMK A01 T03460117  RH  026%=      5-min Rain = 0
KONS 032310Z 14010KT 34/12 A3005 RMK A01 T03420117  RH  026%=      5-min Rain = 0
KONS 032315Z 14011KT 34/12 A3005 RMK A01 T03430116  RH  026%=      5-min Rain = 0
KONS 032320Z 15012KT 34/12 A3005 RMK A01 T03440118  RH  026%=      5-min Rain = 0
KONS 032325Z 15010G15KT 34/12 A3005 RMK A01 T03440116  RH  026%=      5-min Rain = 0
KONS 032330Z 14012G19KT 34/11 A3005 RMK A01 T03430114  RH  026%=      5-min Rain = 0
KONS 032335Z 14008G13KT 34/12 A3004 RMK A01 T03410115  RH  026%=      5-min Rain = 0
KONS 032340Z 15011KT 34/12 A3004 RMK A01 T03430120  RH  027%=      5-min Rain = 0
KONS 032345Z 14009KT 34/11 A3005 RMK A01 T03400113  RH  026%=      5-min Rain = 0
KONS 032350Z 15009KT 34/12 A3004 RMK A01 T03410117  RH  027%=      5-min Rain = 0
KONS 032355Z 13011G17KT 34/12 A3004 RMK A01 T03370115  RH  027%=      5-min Rain = 0
KONS 040000Z 14009KT 33/12 A3004 RMK A01 T03340117  RH  028%=      5-min Rain = 0
KONS 040005Z 14013G18KT 34/12 A3004 RMK A01 T03370119  RH  028%=      5-min Rain = 0
KONS 040010Z 14012G17KT 34/12 A3005 RMK A01 T03360120  RH  028%=      5-min Rain = 0
KONS 040015Z 14006KT 34/12 A3005 RMK A01 T03370119  RH  028%=      5-min Rain = 0
KONS 040020Z 15009KT 34/12 A3005 RMK A01 T03360123  RH  028%=      5-min Rain = 0
KONS 040025Z 14010KT 33/12 A3005 RMK A01 T03330120  RH  029%=      5-min Rain = 0
KONS 040030Z 14009KT 33/12 A3005 RMK A01 T03290123  RH  030%=      5-min Rain = 0
KONS 040035Z 16008KT 32/13 A3005 RMK A01 T03220127  RH  032%=      5-min Rain = 0
KONS 040040Z 16009KT 32/13 A3005 RMK A01 T03170127  RH  033%=      5-min Rain = 0
KONS 040045Z 14008KT 31/13 A3006 RMK A01 T03140129  RH  034%=      5-min Rain = 0
KONS 040050Z 15008KT 31/13 A3006 RMK A01 T03110132  RH  035%=      5-min Rain = 0
KONS 040055Z 15007KT 31/14 A3006 RMK A01 T03080135  RH  036%=      5-min Rain = 0
KONS 040100Z 15008KT 30/14 A3006 RMK A01 T03030138  RH  038%=      5-min Rain = 0
KONS 040105Z 15008KT 30/14 A3006 RMK A01 T03020137  RH  038%=      5-min Rain = 0
KONS 040110Z 14007KT 30/14 A3006 RMK A01 T02970142  RH  040%=      5-min Rain = 0
KONS 040115Z 14007KT 30/14 A3006 RMK A01 T03000140  RH  039%=      5-min Rain = 0
KONS 040120Z 14007KT 31/13 A3006 RMK A01 T03050134  RH  037%=      5-min Rain = 0
KONS 040125Z 14008KT 31/13 A3006 RMK A01 T03060132  RH  036%=      5-min Rain = 0
KONS 040130Z 14007KT 30/13 A3006 RMK A01 T03040134  RH  037%=      5-min Rain = 0
KONS 040135Z 14008KT 30/13 A3006 RMK A01 T03020132  RH  037%=      5-min Rain = 0
KONS 040140Z 14007KT 30/13 A3006 RMK A01 T02990133  RH  038%=      5-min Rain = 0
KONS 040145Z 14007KT 29/14 A3006 RMK A01 T02940137  RH  040%=      5-min Rain = 0
KONS 040150Z 14007KT 29/14 A3006 RMK A01 T02900140  RH  042%=      5-min Rain = 0
KONS 040155Z 14007KT 29/14 A3007 RMK A01 T02850142  RH  043%=      5-min Rain = 0
KONS 040200Z 14007KT 28/14 A3007 RMK A01 T02820142  RH  044%=      5-min Rain = 0
KONS 040205Z 14007KT 28/14 A3007 RMK A01 T02790142  RH  045%=      5-min Rain = 0
KONS 040210Z 14006KT 28/14 A3007 RMK A01 T02760143  RH  046%=      5-min Rain = 0
KONS 040215Z 14006KT 28/14 A3007 RMK A01 T02750143  RH  046%=      5-min Rain = 0
KONS 040220Z 14007KT 27/15 A3007 RMK A01 T02720146  RH  048%=      5-min Rain = 0
KONS 040225Z 14007KT 27/15 A3007 RMK A01 T02700146  RH  049%=      5-min Rain = 0
KONS 040230Z 14006KT 27/15 A3008 RMK A01 T02680146  RH  049%=      5-min Rain = 0
KONS 040235Z 14006KT 27/15 A3008 RMK A01 T02670147  RH  050%=      5-min Rain = 0
KONS 040240Z 14006KT 26/15 A3008 RMK A01 T02640151  RH  052%=      5-min Rain = 0
KONS 040245Z 14006KT 26/15 A3008 RMK A01 T02620153  RH  053%=      5-min Rain = 0
KONS 040250Z 14005KT 26/15 A3008 RMK A01 T02620151  RH  053%=      5-min Rain = 0
KONS 040255Z 14006KT 26/15 A3009 RMK A01 T02630149  RH  051%=      5-min Rain = 0
KONS 040300Z 14006KT 27/15 A3009 RMK A01 T02650150  RH  051%=      5-min Rain = 0
KONS 040305Z 14007KT 26/15 A3009 RMK A01 T02630154  RH  053%=      5-min Rain = 0
KONS 040310Z 13008KT 26/15 A3009 RMK A01 T02600152  RH  054%=      5-min Rain = 0
KONS 040315Z 13007KT 26/15 A3009 RMK A01 T02580148  RH  053%=      5-min Rain = 0
KONS 040320Z 13007KT 26/15 A3009 RMK A01 T02570150  RH  054%=      5-min Rain = 0
KONS 040325Z 13007KT 26/15 A301 RMK A01 T02550152  RH  055%=      5-min Rain = 0
KONS 040330Z 12008KT 26/15 A301 RMK A01 T02550149  RH  054%=      5-min Rain = 0
KONS 040335Z 12008KT 25/15 A301 RMK A01 T02540148  RH  054%=      5-min Rain = 0
KONS 040340Z 12007KT 25/15 A301 RMK A01 T02540147  RH  054%=      5-min Rain = 0
KONS 040345Z 13007KT 25/15 A3011 RMK A01 T02530149  RH  055%=      5-min Rain = 0
KONS 040350Z 13007KT 25/15 A3011 RMK A01 T02510148  RH  055%=      5-min Rain = 0
KONS 040355Z 12008KT 25/15 A3011 RMK A01 T02500146  RH  055%=      5-min Rain = 0
KONS 040400Z 13008KT 25/14 A3012 RMK A01 T02530141  RH  052%=      5-min Rain = 0
KONS 040405Z 13007KT 25/14 A3012 RMK A01 T02540140  RH  051%=      5-min Rain = 0
KONS 040410Z 13007KT 26/14 A3012 RMK A01 T02550138  RH  051%=      5-min Rain = 0
KONS 040415Z 12007KT 26/14 A3012 RMK A01 T02550137  RH  050%=      5-min Rain = 0
KONS 040420Z 13007KT 25/14 A3012 RMK A01 T02530140  RH  052%=      5-min Rain = 0
KONS 040425Z 13007KT 25/14 A3012 RMK A01 T02480143  RH  054%=      5-min Rain = 0
KONS 040430Z 14008KT 25/14 A3012 RMK A01 T02470142  RH  054%=      5-min Rain = 0
KONS 040435Z 14008KT 25/14 A3012 RMK A01 T02470142  RH  054%=      5-min Rain = 0
KONS 040440Z 13008KT 25/14 A3012 RMK A01 T02470143  RH  055%=      5-min Rain = 0
KONS 040445Z 13008KT 25/14 A3012 RMK A01 T02490142  RH  054%=      5-min Rain = 0
KONS 040450Z 14008KT 25/14 A3012 RMK A01 T02500143  RH  054%=      5-min Rain = 0
KONS 040455Z 14008KT 25/14 A3012 RMK A01 T02520144  RH  053%=      5-min Rain = 0

Page generated in 0.0092 seconds.